Opeinde, Netherlands
Current Conditions -  °F | °C
As of 9:25 PM on Wednesday 26 Nov 2014 (Local Time) from EHLW Reporting Station
Haze Haze  
Wind Chill: 32°   Ceiling: Unl
Heat Index: 39°   Visibility: 5mi
Dew Point: 36°   Wind: 10mph
Humidity: 87%   Direction: 110°ESE
Pressure: 29.91"   Gusts: NA
Location:  53.13°N, 6.06°E
Report Text: EHLW 262025Z AUTO 11009KT 8000 BR OVC100 04/02 Q1013 BLU 12011KT 7000 NSC BECMG BKN020
Loading
Personal Weather Stations






























Interactive Weather Map New forecast layout! Learn more

10-Day Weather Forecast

Advertisements
Track Severe Weather on mobile